sensor_id;sensor_type;location;lat;lon;timestamp;temperature;humidity
51902;DHT22;37929;53.218;6.548;2023-05-02T00:01:59;10.90;99.90
51902;DHT22;37929;53.218;6.548;2023-05-02T00:04:25;10.60;99.90
51902;DHT22;37929;53.218;6.548;2023-05-02T00:06:52;10.90;99.90
51902;DHT22;37929;53.218;6.548;2023-05-02T00:09:17;10.80;99.90
51902;DHT22;37929;53.218;6.548;2023-05-02T00:11:43;10.90;99.90
51902;DHT22;37929;53.218;6.548;2023-05-02T00:14:09;10.90;99.90
51902;DHT22;37929;53.218;6.548;2023-05-02T00:16:35;10.90;99.90
51902;DHT22;37929;53.218;6.548;2023-05-02T00:19:01;10.80;99.90
51902;DHT22;37929;53.218;6.548;2023-05-02T00:21:27;10.80;99.90
51902;DHT22;37929;53.218;6.548;2023-05-02T00:23:54;10.80;99.90
51902;DHT22;37929;53.218;6.548;2023-05-02T00:26:23;10.80;99.90
51902;DHT22;37929;53.218;6.548;2023-05-02T00:28:49;10.80;99.90
51902;DHT22;37929;53.218;6.548;2023-05-02T00:31:15;10.80;99.90
51902;DHT22;37929;53.218;6.548;2023-05-02T00:33:41;10.80;99.90
51902;DHT22;37929;53.218;6.548;2023-05-02T00:36:17;10.80;99.90
51902;DHT22;37929;53.218;6.548;2023-05-02T00:38:43;10.80;99.90
51902;DHT22;37929;53.218;6.548;2023-05-02T00:41:09;10.80;99.90
51902;DHT22;37929;53.218;6.548;2023-05-02T00:43:35;10.80;99.90
51902;DHT22;37929;53.218;6.548;2023-05-02T00:46:04;10.80;99.90
51902;DHT22;37929;53.218;6.548;2023-05-02T00:48:31;10.80;99.90
51902;DHT22;37929;53.218;6.548;2023-05-02T00:50:57;10.80;99.90
51902;DHT22;37929;53.218;6.548;2023-05-02T00:53:23;10.80;99.90
51902;DHT22;37929;53.218;6.548;2023-05-02T00:55:49;10.80;99.90
51902;DHT22;37929;53.218;6.548;2023-05-02T00:58:16;10.70;99.90
51902;DHT22;37929;53.218;6.548;2023-05-02T01:12:03;10.80;99.90
51902;DHT22;37929;53.218;6.548;2023-05-02T01:14:33;10.80;99.90
51902;DHT22;37929;53.218;6.548;2023-05-02T01:17:03;10.70;99.90
51902;DHT22;37929;53.218;6.548;2023-05-02T01:19:35;10.70;99.90
51902;DHT22;37929;53.218;6.548;2023-05-02T01:22:06;10.70;99.90
51902;DHT22;37929;53.218;6.548;2023-05-02T01:28:20;10.70;99.90
51902;DHT22;37929;53.218;6.548;2023-05-02T01:30:27;10.70;99.90
51902;DHT22;37929;53.218;6.548;2023-05-02T01:32:55;10.60;99.90
51902;DHT22;37929;53.218;6.548;2023-05-02T01:35:22;10.60;99.90
51902;DHT22;37929;53.218;6.548;2023-05-02T01:37:49;10.50;99.90
51902;DHT22;37929;53.218;6.548;2023-05-02T01:40:19;10.50;99.90
51902;DHT22;37929;53.218;6.548;2023-05-02T01:42:49;10.50;99.90
51902;DHT22;37929;53.218;6.548;2023-05-02T01:45:15;10.50;99.90
51902;DHT22;37929;53.218;6.548;2023-05-02T01:47:42;10.50;99.90
51902;DHT22;37929;53.218;6.548;2023-05-02T01:50:11;10.50;99.90
51902;DHT22;37929;53.218;6.548;2023-05-02T01:52:39;10.50;99.90
51902;DHT22;37929;53.218;6.548;2023-05-02T01:55:08;10.50;99.90
51902;DHT22;37929;53.218;6.548;2023-05-02T01:57:38;10.50;99.90
51902;DHT22;37929;53.218;6.548;2023-05-02T02:00:04;10.50;99.90
51902;DHT22;37929;53.218;6.548;2023-05-02T02:02:33;10.50;99.90
51902;DHT22;37929;53.218;6.548;2023-05-02T02:04:59;10.50;99.90
51902;DHT22;37929;53.218;6.548;2023-05-02T02:07:27;10.40;99.90
51902;DHT22;37929;53.218;6.548;2023-05-02T02:09:53;10.40;99.90
51902;DHT22;37929;53.218;6.548;2023-05-02T02:12:23;10.40;99.90
51902;DHT22;37929;53.218;6.548;2023-05-02T02:14:56;10.30;99.90
51902;DHT22;37929;53.218;6.548;2023-05-02T02:17:47;10.30;99.90
51902;DHT22;37929;53.218;6.548;2023-05-02T02:20:11;10.20;99.90
51902;DHT22;37929;53.218;6.548;2023-05-02T02:22:39;10.20;99.90
51902;DHT22;37929;53.218;6.548;2023-05-02T02:25:07;10.10;99.90
51902;DHT22;37929;53.218;6.548;2023-05-02T02:27:36;10.10;99.90
51902;DHT22;37929;53.218;6.548;2023-05-02T02:30:02;10.30;99.90
51902;DHT22;37929;53.218;6.548;2023-05-02T02:32:28;10.10;99.90
51902;DHT22;37929;53.218;6.548;2023-05-02T02:35:01;10.00;99.90
51902;DHT22;37929;53.218;6.548;2023-05-02T02:37:31;10.00;99.90
51902;DHT22;37929;53.218;6.548;2023-05-02T02:51:13;9.80;99.90
51902;DHT22;37929;53.218;6.548;2023-05-02T02:56:41;9.70;99.90
51902;DHT22;37929;53.218;6.548;2023-05-02T02:59:28;9.60;99.90
51902;DHT22;37929;53.218;6.548;2023-05-02T03:02:07;9.60;99.90
51902;DHT22;37929;53.218;6.548;2023-05-02T03:04:37;9.60;99.90
51902;DHT22;37929;53.218;6.548;2023-05-02T03:07:03;9.60;99.90
51902;DHT22;37929;53.218;6.548;2023-05-02T03:09:49;9.50;99.90
51902;DHT22;37929;53.218;6.548;2023-05-02T03:12:15;9.50;99.90
51902;DHT22;37929;53.218;6.548;2023-05-02T03:14:41;9.40;99.90
51902;DHT22;37929;53.218;6.548;2023-05-02T03:17:06;9.40;99.90
51902;DHT22;37929;53.218;6.548;2023-05-02T03:19:35;9.40;99.90
51902;DHT22;37929;53.218;6.548;2023-05-02T03:22:02;9.30;99.90
51902;DHT22;37929;53.218;6.548;2023-05-02T03:24:28;9.30;99.90
51902;DHT22;37929;53.218;6.548;2023-05-02T03:26:57;9.30;99.90
51902;DHT22;37929;53.218;6.548;2023-05-02T03:29:24;9.30;99.90
51902;DHT22;37929;53.218;6.548;2023-05-02T03:31:51;9.40;99.90
51902;DHT22;37929;53.218;6.548;2023-05-02T03:34:17;9.30;99.90
51902;DHT22;37929;53.218;6.548;2023-05-02T03:36:44;9.20;99.90
51902;DHT22;37929;53.218;6.548;2023-05-02T03:39:09;9.20;99.90
51902;DHT22;37929;53.218;6.548;2023-05-02T03:41:35;9.20;99.90
51902;DHT22;37929;53.218;6.548;2023-05-02T03:44:01;9.70;99.90
51902;DHT22;37929;53.218;6.548;2023-05-02T03:46:27;9.20;99.90
51902;DHT22;37929;53.218;6.548;2023-05-02T03:48:52;9.20;99.90
51902;DHT22;37929;53.218;6.548;2023-05-02T03:51:18;9.20;99.90
51902;DHT22;37929;53.218;6.548;2023-05-02T03:53:44;9.10;99.90
51902;DHT22;37929;53.218;6.548;2023-05-02T03:56:10;9.10;99.90
51902;DHT22;37929;53.218;6.548;2023-05-02T03:58:36;9.10;99.90
51902;DHT22;37929;53.218;6.548;2023-05-02T04:01:02;9.10;99.90
51902;DHT22;37929;53.218;6.548;2023-05-02T04:03:28;9.10;99.90
51902;DHT22;37929;53.218;6.548;2023-05-02T04:05:53;9.00;99.90
51902;DHT22;37929;53.218;6.548;2023-05-02T04:08:19;9.00;99.90
51902;DHT22;37929;53.218;6.548;2023-05-02T04:10:45;9.00;99.90
51902;DHT22;37929;53.218;6.548;2023-05-02T04:13:11;9.00;99.90
51902;DHT22;37929;53.218;6.548;2023-05-02T04:15:36;9.00;99.90
51902;DHT22;37929;53.218;6.548;2023-05-02T04:18:03;8.90;99.90
51902;DHT22;37929;53.218;6.548;2023-05-02T04:20:29;9.00;99.90
51902;DHT22;37929;53.218;6.548;2023-05-02T04:22:55;9.00;99.90
51902;DHT22;37929;53.218;6.548;2023-05-02T04:25:21;8.90;99.90
51902;DHT22;37929;53.218;6.548;2023-05-02T04:27:46;8.90;99.90
51902;DHT22;37929;53.218;6.548;2023-05-02T04:30:12;8.80;99.90
51902;DHT22;37929;53.218;6.548;2023-05-02T04:32:38;8.80;99.90
51902;DHT22;37929;53.218;6.548;2023-05-02T04:35:04;9.30;99.90
51902;DHT22;37929;53.218;6.548;2023-05-02T04:37:30;8.70;99.90
51902;DHT22;37929;53.218;6.548;2023-05-02T04:39:56;8.80;99.90
51902;DHT22;37929;53.218;6.548;2023-05-02T04:42:22;8.80;99.90
51902;DHT22;37929;53.218;6.548;2023-05-02T04:44:50;8.70;99.90
51902;DHT22;37929;53.218;6.548;2023-05-02T04:47:16;8.70;99.90
51902;DHT22;37929;53.218;6.548;2023-05-02T04:49:42;8.70;99.90
51902;DHT22;37929;53.218;6.548;2023-05-02T04:52:08;8.70;99.90
51902;DHT22;37929;53.218;6.548;2023-05-02T04:54:35;8.70;99.90
51902;DHT22;37929;53.218;6.548;2023-05-02T04:57:01;8.70;99.90
51902;DHT22;37929;53.218;6.548;2023-05-02T04:59:28;8.70;99.90
51902;DHT22;37929;53.218;6.548;2023-05-02T05:01:55;8.70;99.90
51902;DHT22;37929;53.218;6.548;2023-05-02T05:04:21;8.80;99.90
51902;DHT22;37929;53.218;6.548;2023-05-02T05:06:47;8.80;99.90
51902;DHT22;37929;53.218;6.548;2023-05-02T05:09:14;8.70;99.90
51902;DHT22;37929;53.218;6.548;2023-05-02T05:11:40;8.80;99.90
51902;DHT22;37929;53.218;6.548;2023-05-02T05:14:07;8.80;99.90
51902;DHT22;37929;53.218;6.548;2023-05-02T05:16:33;8.80;99.90
51902;DHT22;37929;53.218;6.548;2023-05-02T05:18:59;8.80;99.90
51902;DHT22;37929;53.218;6.548;2023-05-02T05:21:25;8.80;99.90
51902;DHT22;37929;53.218;6.548;2023-05-02T05:23:51;8.90;99.90
51902;DHT22;37929;53.218;6.548;2023-05-02T05:26:17;8.70;99.90
51902;DHT22;37929;53.218;6.548;2023-05-02T05:28:44;8.70;99.90
51902;DHT22;37929;53.218;6.548;2023-05-02T05:31:11;8.70;99.90
51902;DHT22;37929;53.218;6.548;2023-05-02T05:33:38;8.70;99.90
51902;DHT22;37929;53.218;6.548;2023-05-02T05:36:07;8.80;99.90
51902;DHT22;37929;53.218;6.548;2023-05-02T05:38:34;8.80;99.90
51902;DHT22;37929;53.218;6.548;2023-05-02T05:41:00;8.80;99.90
51902;DHT22;37929;53.218;6.548;2023-05-02T05:43:26;8.90;99.90
51902;DHT22;37929;53.218;6.548;2023-05-02T05:45:53;8.80;99.90
51902;DHT22;37929;53.218;6.548;2023-05-02T05:48:18;8.80;99.90
51902;DHT22;37929;53.218;6.548;2023-05-02T05:50:44;8.80;99.90
51902;DHT22;37929;53.218;6.548;2023-05-02T05:53:11;8.90;99.90
51902;DHT22;37929;53.218;6.548;2023-05-02T05:55:37;8.90;99.90
51902;DHT22;37929;53.218;6.548;2023-05-02T05:58:03;8.90;99.90
51902;DHT22;37929;53.218;6.548;2023-05-02T06:00:29;8.90;99.90
51902;DHT22;37929;53.218;6.548;2023-05-02T06:02:55;8.90;99.90
51902;DHT22;37929;53.218;6.548;2023-05-02T06:05:21;8.90;99.90
51902;DHT22;37929;53.218;6.548;2023-05-02T06:07:46;8.90;99.90
51902;DHT22;37929;53.218;6.548;2023-05-02T06:10:12;8.80;99.90
51902;DHT22;37929;53.218;6.548;2023-05-02T06:12:38;8.80;99.90
51902;DHT22;37929;53.218;6.548;2023-05-02T06:15:04;8.80;99.90
51902;DHT22;37929;53.218;6.548;2023-05-02T06:17:30;8.80;99.90
51902;DHT22;37929;53.218;6.548;2023-05-02T06:19:56;9.20;99.90
51902;DHT22;37929;53.218;6.548;2023-05-02T06:22:21;9.10;99.90
51902;DHT22;37929;53.218;6.548;2023-05-02T06:24:47;8.80;99.90
51902;DHT22;37929;53.218;6.548;2023-05-02T06:27:13;8.80;99.90
51902;DHT22;37929;53.218;6.548;2023-05-02T06:29:38;8.90;99.90
51902;DHT22;37929;53.218;6.548;2023-05-02T06:32:04;8.90;99.90
51902;DHT22;37929;53.218;6.548;2023-05-02T06:34:31;8.90;99.90
51902;DHT22;37929;53.218;6.548;2023-05-02T06:36:58;8.90;99.90
51902;DHT22;37929;53.218;6.548;2023-05-02T06:39:23;8.90;99.90
51902;DHT22;37929;53.218;6.548;2023-05-02T06:41:49;8.90;99.90
51902;DHT22;37929;53.218;6.548;2023-05-02T06:44:15;8.90;99.90
51902;DHT22;37929;53.218;6.548;2023-05-02T06:46:41;8.90;99.90
51902;DHT22;37929;53.218;6.548;2023-05-02T06:49:07;8.90;99.90
51902;DHT22;37929;53.218;6.548;2023-05-02T06:51:33;8.90;99.90
51902;DHT22;37929;53.218;6.548;2023-05-02T06:53:59;8.90;99.90
51902;DHT22;37929;53.218;6.548;2023-05-02T06:56:25;8.90;99.90
51902;DHT22;37929;53.218;6.548;2023-05-02T06:58:51;8.90;99.90
51902;DHT22;37929;53.218;6.548;2023-05-02T07:01:17;8.90;99.90
51902;DHT22;37929;53.218;6.548;2023-05-02T07:03:45;8.90;99.90
51902;DHT22;37929;53.218;6.548;2023-05-02T07:06:11;8.90;99.90
51902;DHT22;37929;53.218;6.548;2023-05-02T07:08:36;8.90;99.90
51902;DHT22;37929;53.218;6.548;2023-05-02T07:11:05;8.90;99.90
51902;DHT22;37929;53.218;6.548;2023-05-02T07:13:30;8.90;99.90
51902;DHT22;37929;53.218;6.548;2023-05-02T07:15:56;8.90;99.90
51902;DHT22;37929;53.218;6.548;2023-05-02T07:18:23;8.90;99.90
51902;DHT22;37929;53.218;6.548;2023-05-02T07:20:51;8.90;99.90
51902;DHT22;37929;53.218;6.548;2023-05-02T07:23:17;8.90;99.90
51902;DHT22;37929;53.218;6.548;2023-05-02T07:25:43;8.90;99.90
51902;DHT22;37929;53.218;6.548;2023-05-02T07:28:09;9.00;99.90
51902;DHT22;37929;53.218;6.548;2023-05-02T07:30:35;9.00;99.90
51902;DHT22;37929;53.218;6.548;2023-05-02T07:33:00;8.90;99.90
51902;DHT22;37929;53.218;6.548;2023-05-02T07:35:26;9.00;99.90
51902;DHT22;37929;53.218;6.548;2023-05-02T07:37:52;9.00;99.90
51902;DHT22;37929;53.218;6.548;2023-05-02T07:40:18;9.00;99.90
51902;DHT22;37929;53.218;6.548;2023-05-02T07:42:43;9.10;99.90
51902;DHT22;37929;53.218;6.548;2023-05-02T07:45:09;9.10;99.90
51902;DHT22;37929;53.218;6.548;2023-05-02T07:47:35;9.20;99.90
51902;DHT22;37929;53.218;6.548;2023-05-02T07:50:02;9.30;99.90
51902;DHT22;37929;53.218;6.548;2023-05-02T07:52:31;9.40;99.90
51902;DHT22;37929;53.218;6.548;2023-05-02T07:54:57;9.40;99.90
51902;DHT22;37929;53.218;6.548;2023-05-02T07:57:24;9.50;99.90
51902;DHT22;37929;53.218;6.548;2023-05-02T07:59:50;9.60;99.90
51902;DHT22;37929;53.218;6.548;2023-05-02T08:02:16;9.70;99.90
51902;DHT22;37929;53.218;6.548;2023-05-02T08:04:45;9.80;99.90
51902;DHT22;37929;53.218;6.548;2023-05-02T08:07:11;9.80;99.90
51902;DHT22;37929;53.218;6.548;2023-05-02T08:09:37;9.90;99.90
51902;DHT22;37929;53.218;6.548;2023-05-02T08:12:03;9.90;99.90
51902;DHT22;37929;53.218;6.548;2023-05-02T08:14:32;9.80;99.90
51902;DHT22;37929;53.218;6.548;2023-05-02T08:17:01;9.80;99.90
51902;DHT22;37929;53.218;6.548;2023-05-02T08:19:27;9.80;99.90
51902;DHT22;37929;53.218;6.548;2023-05-02T08:21:53;9.90;99.90
51902;DHT22;37929;53.218;6.548;2023-05-02T08:24:19;9.90;99.90
51902;DHT22;37929;53.218;6.548;2023-05-02T08:26:46;9.90;99.90
51902;DHT22;37929;53.218;6.548;2023-05-02T08:29:15;9.90;99.90
51902;DHT22;37929;53.218;6.548;2023-05-02T08:31:41;9.80;99.90
51902;DHT22;37929;53.218;6.548;2023-05-02T08:34:07;9.90;99.90
51902;DHT22;37929;53.218;6.548;2023-05-02T08:36:33;10.00;99.90
51902;DHT22;37929;53.218;6.548;2023-05-02T08:38:59;10.10;99.90
51902;DHT22;37929;53.218;6.548;2023-05-02T08:41:28;10.10;99.90
51902;DHT22;37929;53.218;6.548;2023-05-02T08:43:55;10.20;99.90
51902;DHT22;37929;53.218;6.548;2023-05-02T08:46:21;10.30;99.90
51902;DHT22;37929;53.218;6.548;2023-05-02T08:48:49;10.30;99.90
51902;DHT22;37929;53.218;6.548;2023-05-02T08:51:16;10.30;99.90
51902;DHT22;37929;53.218;6.548;2023-05-02T08:53:44;10.40;99.90
51902;DHT22;37929;53.218;6.548;2023-05-02T08:56:11;10.50;99.90
51902;DHT22;37929;53.218;6.548;2023-05-02T08:58:39;10.70;99.90
51902;DHT22;37929;53.218;6.548;2023-05-02T09:01:27;10.80;99.90
51902;DHT22;37929;53.218;6.548;2023-05-02T09:03:55;10.90;99.90
51902;DHT22;37929;53.218;6.548;2023-05-02T09:06:25;10.90;99.90
51902;DHT22;37929;53.218;6.548;2023-05-02T09:08:51;10.80;99.90
51902;DHT22;37929;53.218;6.548;2023-05-02T09:11:18;10.80;99.90
51902;DHT22;37929;53.218;6.548;2023-05-02T09:13:48;10.70;99.90
51902;DHT22;37929;53.218;6.548;2023-05-02T09:16:20;10.60;99.90
51902;DHT22;37929;53.218;6.548;2023-05-02T09:18:57;10.60;99.90
51902;DHT22;37929;53.218;6.548;2023-05-02T09:21:25;10.60;99.90
51902;DHT22;37929;53.218;6.548;2023-05-02T09:23:52;10.50;99.90
51902;DHT22;37929;53.218;6.548;2023-05-02T09:26:38;10.40;99.90
51902;DHT22;37929;53.218;6.548;2023-05-02T09:29:04;10.40;99.90
51902;DHT22;37929;53.218;6.548;2023-05-02T09:31:34;10.30;99.90
51902;DHT22;37929;53.218;6.548;2023-05-02T09:34:16;10.30;99.90
51902;DHT22;37929;53.218;6.548;2023-05-02T09:36:42;10.30;99.90
51902;DHT22;37929;53.218;6.548;2023-05-02T09:39:12;10.40;99.90
51902;DHT22;37929;53.218;6.548;2023-05-02T09:41:47;10.50;99.90
51902;DHT22;37929;53.218;6.548;2023-05-02T09:44:19;10.60;99.90
51902;DHT22;37929;53.218;6.548;2023-05-02T09:46:55;10.80;99.90
51902;DHT22;37929;53.218;6.548;2023-05-02T09:49:42;10.90;99.90
51902;DHT22;37929;53.218;6.548;2023-05-02T09:52:16;11.00;99.90
51902;DHT22;37929;53.218;6.548;2023-05-02T09:54:42;11.10;99.90
51902;DHT22;37929;53.218;6.548;2023-05-02T09:57:08;11.10;99.90
51902;DHT22;37929;53.218;6.548;2023-05-02T09:59:35;11.10;99.90
51902;DHT22;37929;53.218;6.548;2023-05-02T10:02:05;11.00;99.90
51902;DHT22;37929;53.218;6.548;2023-05-02T10:04:33;11.20;99.90
51902;DHT22;37929;53.218;6.548;2023-05-02T10:07:02;10.90;99.90
51902;DHT22;37929;53.218;6.548;2023-05-02T10:09:29;10.80;99.90
51902;DHT22;37929;53.218;6.548;2023-05-02T10:12:01;10.90;99.90
51902;DHT22;37929;53.218;6.548;2023-05-02T10:14:38;11.20;99.90
51902;DHT22;37929;53.218;6.548;2023-05-02T10:17:13;11.50;99.90
51902;DHT22;37929;53.218;6.548;2023-05-02T10:19:56;11.60;99.90
51902;DHT22;37929;53.218;6.548;2023-05-02T10:22:22;11.70;99.90
51902;DHT22;37929;53.218;6.548;2023-05-02T10:24:49;12.10;99.90
51902;DHT22;37929;53.218;6.548;2023-05-02T10:27:15;11.80;99.90
51902;DHT22;37929;53.218;6.548;2023-05-02T10:29:41;11.80;99.90
51902;DHT22;37929;53.218;6.548;2023-05-02T10:32:08;11.70;99.90
51902;DHT22;37929;53.218;6.548;2023-05-02T10:34:35;11.60;99.90
51902;DHT22;37929;53.218;6.548;2023-05-02T10:37:03;11.60;99.90
51902;DHT22;37929;53.218;6.548;2023-05-02T10:39:29;11.60;99.90
51902;DHT22;37929;53.218;6.548;2023-05-02T10:41:58;11.50;99.90
51902;DHT22;37929;53.218;6.548;2023-05-02T10:44:37;11.50;99.90
51902;DHT22;37929;53.218;6.548;2023-05-02T10:47:20;11.40;99.90
51902;DHT22;37929;53.218;6.548;2023-05-02T10:50:12;11.30;99.90
51902;DHT22;37929;53.218;6.548;2023-05-02T10:52:38;11.00;99.90
51902;DHT22;37929;53.218;6.548;2023-05-02T10:55:19;11.00;99.90
51902;DHT22;37929;53.218;6.548;2023-05-02T11:00:30;10.80;99.90
51902;DHT22;37929;53.218;6.548;2023-05-02T11:02:59;10.80;99.90
51902;DHT22;37929;53.218;6.548;2023-05-02T11:05:26;10.80;99.90
51902;DHT22;37929;53.218;6.548;2023-05-02T11:10:40;11.10;99.90
51902;DHT22;37929;53.218;6.548;2023-05-02T11:13:06;11.30;99.90
51902;DHT22;37929;53.218;6.548;2023-05-02T11:20:32;12.00;99.90
51902;DHT22;37929;53.218;6.548;2023-05-02T11:25:41;12.20;99.90
51902;DHT22;37929;53.218;6.548;2023-05-02T11:31:04;12.20;99.90
51902;DHT22;37929;53.218;6.548;2023-05-02T11:33:30;12.10;99.90
51902;DHT22;37929;53.218;6.548;2023-05-02T11:35:56;12.00;99.90
51902;DHT22;37929;53.218;6.548;2023-05-02T11:38:24;11.90;99.90
51902;DHT22;37929;53.218;6.548;2023-05-02T11:40:58;11.90;99.90
51902;DHT22;37929;53.218;6.548;2023-05-02T11:43:26;11.90;99.90
51902;DHT22;37929;53.218;6.548;2023-05-02T11:45:54;11.90;99.90
51902;DHT22;37929;53.218;6.548;2023-05-02T11:48:21;11.90;99.90
51902;DHT22;37929;53.218;6.548;2023-05-02T11:50:52;11.90;99.90
51902;DHT22;37929;53.218;6.548;2023-05-02T11:53:22;11.90;99.90
51902;DHT22;37929;53.218;6.548;2023-05-02T11:55:52;11.80;99.90
51902;DHT22;37929;53.218;6.548;2023-05-02T11:58:23;11.80;99.90
51902;DHT22;37929;53.218;6.548;2023-05-02T12:00:50;11.80;99.90
51902;DHT22;37929;53.218;6.548;2023-05-02T12:03:31;11.90;99.90
51902;DHT22;37929;53.218;6.548;2023-05-02T12:06:16;12.20;99.90
51902;DHT22;37929;53.218;6.548;2023-05-02T12:08:45;12.60;99.90
51902;DHT22;37929;53.218;6.548;2023-05-02T12:11:15;12.70;99.90
51902;DHT22;37929;53.218;6.548;2023-05-02T12:13:46;12.70;99.90
51902;DHT22;37929;53.218;6.548;2023-05-02T12:16:12;12.60;99.90
51902;DHT22;37929;53.218;6.548;2023-05-02T12:18:38;12.50;99.90
51902;DHT22;37929;53.218;6.548;2023-05-02T12:21:04;12.40;99.90
51902;DHT22;37929;53.218;6.548;2023-05-02T12:23:30;12.30;99.90
51902;DHT22;37929;53.218;6.548;2023-05-02T12:25:57;12.30;99.90
51902;DHT22;37929;53.218;6.548;2023-05-02T12:28:23;12.40;99.90
51902;DHT22;37929;53.218;6.548;2023-05-02T12:30:50;12.40;99.90
51902;DHT22;37929;53.218;6.548;2023-05-02T12:33:16;12.50;99.90
51902;DHT22;37929;53.218;6.548;2023-05-02T12:35:42;12.50;99.90
51902;DHT22;37929;53.218;6.548;2023-05-02T12:38:17;12.60;99.90
51902;DHT22;37929;53.218;6.548;2023-05-02T12:40:54;12.70;99.90
51902;DHT22;37929;53.218;6.548;2023-05-02T12:43:23;12.90;99.90
51902;DHT22;37929;53.218;6.548;2023-05-02T12:45:49;12.90;99.90
51902;DHT22;37929;53.218;6.548;2023-05-02T12:48:20;12.90;99.90
51902;DHT22;37929;53.218;6.548;2023-05-02T12:50:46;12.80;99.90
51902;DHT22;37929;53.218;6.548;2023-05-02T12:53:12;12.70;99.90
51902;DHT22;37929;53.218;6.548;2023-05-02T12:55:37;12.60;99.90
51902;DHT22;37929;53.218;6.548;2023-05-02T12:58:05;12.50;99.90
51902;DHT22;37929;53.218;6.548;2023-05-02T13:00:33;12.50;99.90
51902;DHT22;37929;53.218;6.548;2023-05-02T13:03:00;12.40;99.90
51902;DHT22;37929;53.218;6.548;2023-05-02T13:05:26;12.30;99.90
51902;DHT22;37929;53.218;6.548;2023-05-02T13:07:52;12.30;99.90
51902;DHT22;37929;53.218;6.548;2023-05-02T13:10:18;12.30;99.90
51902;DHT22;37929;53.218;6.548;2023-05-02T13:12:45;12.30;99.90
51902;DHT22;37929;53.218;6.548;2023-05-02T13:15:12;12.20;99.90
51902;DHT22;37929;53.218;6.548;2023-05-02T13:17:38;12.30;99.90
51902;DHT22;37929;53.218;6.548;2023-05-02T13:20:05;12.20;99.90
51902;DHT22;37929;53.218;6.548;2023-05-02T13:22:33;12.20;99.90
51902;DHT22;37929;53.218;6.548;2023-05-02T13:24:58;12.10;99.90
51902;DHT22;37929;53.218;6.548;2023-05-02T13:27:24;12.10;99.90
51902;DHT22;37929;53.218;6.548;2023-05-02T13:29:51;12.00;99.90
51902;DHT22;37929;53.218;6.548;2023-05-02T13:32:17;11.90;99.90
51902;DHT22;37929;53.218;6.548;2023-05-02T13:34:43;11.90;99.90
51902;DHT22;37929;53.218;6.548;2023-05-02T13:37:09;11.70;99.90
51902;DHT22;37929;53.218;6.548;2023-05-02T13:39:35;11.90;99.90
51902;DHT22;37929;53.218;6.548;2023-05-02T13:42:01;11.90;99.90
51902;DHT22;37929;53.218;6.548;2023-05-02T13:44:30;11.80;99.90
51902;DHT22;37929;53.218;6.548;2023-05-02T13:46:57;11.80;99.90
51902;DHT22;37929;53.218;6.548;2023-05-02T13:49:23;11.70;99.90
51902;DHT22;37929;53.218;6.548;2023-05-02T13:51:49;11.70;99.90
51902;DHT22;37929;53.218;6.548;2023-05-02T13:54:15;11.60;99.90
51902;DHT22;37929;53.218;6.548;2023-05-02T13:56:41;11.70;99.90
51902;DHT22;37929;53.218;6.548;2023-05-02T13:59:08;11.80;99.90
51902;DHT22;37929;53.218;6.548;2023-05-02T14:01:34;11.90;99.90
51902;DHT22;37929;53.218;6.548;2023-05-02T14:04:00;11.90;99.90
51902;DHT22;37929;53.218;6.548;2023-05-02T14:06:31;11.90;99.90
51902;DHT22;37929;53.218;6.548;2023-05-02T14:09:00;11.90;99.90
51902;DHT22;37929;53.218;6.548;2023-05-02T14:11:26;11.90;99.90
51902;DHT22;37929;53.218;6.548;2023-05-02T14:13:52;11.90;99.90
51902;DHT22;37929;53.218;6.548;2023-05-02T14:16:18;11.90;99.90
51902;DHT22;37929;53.218;6.548;2023-05-02T14:18:44;11.90;99.90
51902;DHT22;37929;53.218;6.548;2023-05-02T14:21:15;12.00;99.90
51902;DHT22;37929;53.218;6.548;2023-05-02T14:23:41;12.00;99.90
51902;DHT22;37929;53.218;6.548;2023-05-02T14:26:07;12.00;99.90
51902;DHT22;37929;53.218;6.548;2023-05-02T14:28:33;11.90;99.90
51902;DHT22;37929;53.218;6.548;2023-05-02T14:30:59;11.90;99.90
51902;DHT22;37929;53.218;6.548;2023-05-02T14:33:25;11.80;99.90
51902;DHT22;37929;53.218;6.548;2023-05-02T14:35:51;11.80;99.90
51902;DHT22;37929;53.218;6.548;2023-05-02T14:38:17;11.70;99.90
51902;DHT22;37929;53.218;6.548;2023-05-02T14:40:42;11.70;99.90
51902;DHT22;37929;53.218;6.548;2023-05-02T14:43:08;11.70;99.90
51902;DHT22;37929;53.218;6.548;2023-05-02T14:45:36;11.70;99.90
51902;DHT22;37929;53.218;6.548;2023-05-02T14:48:02;11.60;99.90
51902;DHT22;37929;53.218;6.548;2023-05-02T14:50:28;11.60;99.90
51902;DHT22;37929;53.218;6.548;2023-05-02T14:52:53;11.60;99.90
51902;DHT22;37929;53.218;6.548;2023-05-02T14:55:19;11.50;99.90
51902;DHT22;37929;53.218;6.548;2023-05-02T14:57:45;11.50;99.90
51902;DHT22;37929;53.218;6.548;2023-05-02T15:00:11;11.50;99.90
51902;DHT22;37929;53.218;6.548;2023-05-02T15:02:37;11.50;99.90
51902;DHT22;37929;53.218;6.548;2023-05-02T15:05:04;11.50;99.90
51902;DHT22;37929;53.218;6.548;2023-05-02T15:07:32;11.40;99.90
51902;DHT22;37929;53.218;6.548;2023-05-02T15:09:58;11.40;99.90
51902;DHT22;37929;53.218;6.548;2023-05-02T15:12:23;11.30;99.90
51902;DHT22;37929;53.218;6.548;2023-05-02T15:14:50;11.30;99.90
51902;DHT22;37929;53.218;6.548;2023-05-02T15:17:16;11.30;99.90
51902;DHT22;37929;53.218;6.548;2023-05-02T15:19:42;11.30;99.90
51902;DHT22;37929;53.218;6.548;2023-05-02T15:22:08;11.20;99.90
51902;DHT22;37929;53.218;6.548;2023-05-02T15:24:33;11.20;99.90
51902;DHT22;37929;53.218;6.548;2023-05-02T15:26:59;11.20;99.90
51902;DHT22;37929;53.218;6.548;2023-05-02T15:29:26;11.20;99.90
51902;DHT22;37929;53.218;6.548;2023-05-02T15:31:51;11.20;99.90
51902;DHT22;37929;53.218;6.548;2023-05-02T15:34:19;11.20;99.90
51902;DHT22;37929;53.218;6.548;2023-05-02T15:36:45;11.30;99.90
51902;DHT22;37929;53.218;6.548;2023-05-02T15:39:11;11.30;99.90
51902;DHT22;37929;53.218;6.548;2023-05-02T15:41:37;11.20;99.90
51902;DHT22;37929;53.218;6.548;2023-05-02T15:44:03;11.30;99.90
51902;DHT22;37929;53.218;6.548;2023-05-02T15:46:28;11.40;99.90
51902;DHT22;37929;53.218;6.548;2023-05-02T15:48:57;11.40;99.90
51902;DHT22;37929;53.218;6.548;2023-05-02T15:51:23;11.40;99.90
51902;DHT22;37929;53.218;6.548;2023-05-02T15:53:49;11.40;99.90
51902;DHT22;37929;53.218;6.548;2023-05-02T15:56:16;11.40;99.90
51902;DHT22;37929;53.218;6.548;2023-05-02T15:58:43;11.50;99.90
51902;DHT22;37929;53.218;6.548;2023-05-02T16:01:09;11.50;99.90
51902;DHT22;37929;53.218;6.548;2023-05-02T16:03:34;11.50;99.90
51902;DHT22;37929;53.218;6.548;2023-05-02T16:06:00;11.40;99.90
51902;DHT22;37929;53.218;6.548;2023-05-02T16:08:26;11.40;99.90
51902;DHT22;37929;53.218;6.548;2023-05-02T16:10:52;11.40;99.90
51902;DHT22;37929;53.218;6.548;2023-05-02T16:13:19;11.30;99.90
51902;DHT22;37929;53.218;6.548;2023-05-02T16:15:45;11.30;99.90
51902;DHT22;37929;53.218;6.548;2023-05-02T16:18:14;11.30;99.90
51902;DHT22;37929;53.218;6.548;2023-05-02T16:20:40;11.30;99.90
51902;DHT22;37929;53.218;6.548;2023-05-02T16:23:06;11.30;99.90
51902;DHT22;37929;53.218;6.548;2023-05-02T16:25:32;11.30;99.90